sensor_id;sensor_type;location;lat;lon;timestamp;P1;durP1;ratioP1;P2;durP2;ratioP2
6858;SDS011;3468;42.824;23.240;2023-05-19T00:00:02;10.13;;;6.80;;
6858;SDS011;3468;42.824;23.240;2023-05-19T00:02:31;11.00;;;6.97;;
6858;SDS011;3468;42.824;23.240;2023-05-19T00:04:58;11.37;;;6.80;;
6858;SDS011;3468;42.824;23.240;2023-05-19T00:07:27;9.63;;;5.77;;
6858;SDS011;3468;42.824;23.240;2023-05-19T00:09:58;8.07;;;5.13;;
6858;SDS011;3468;42.824;23.240;2023-05-19T00:12:25;7.37;;;5.43;;
6858;SDS011;3468;42.824;23.240;2023-05-19T00:14:52;14.43;;;6.27;;
6858;SDS011;3468;42.824;23.240;2023-05-19T00:17:20;11.20;;;5.27;;
6858;SDS011;3468;42.824;23.240;2023-05-19T00:19:47;10.60;;;5.53;;
6858;SDS011;3468;42.824;23.240;2023-05-19T00:22:14;10.73;;;5.50;;
6858;SDS011;3468;42.824;23.240;2023-05-19T00:24:41;8.00;;;5.40;;
6858;SDS011;3468;42.824;23.240;2023-05-19T00:27:09;9.27;;;5.83;;
6858;SDS011;3468;42.824;23.240;2023-05-19T00:29:35;11.50;;;6.03;;
6858;SDS011;3468;42.824;23.240;2023-05-19T00:32:02;8.43;;;5.90;;
6858;SDS011;3468;42.824;23.240;2023-05-19T00:34:29;8.53;;;6.13;;
6858;SDS011;3468;42.824;23.240;2023-05-19T00:36:56;8.17;;;5.77;;
6858;SDS011;3468;42.824;23.240;2023-05-19T00:39:22;9.27;;;5.87;;
6858;SDS011;3468;42.824;23.240;2023-05-19T00:41:49;10.27;;;5.93;;
6858;SDS011;3468;42.824;23.240;2023-05-19T00:44:17;9.13;;;6.33;;
6858;SDS011;3468;42.824;23.240;2023-05-19T00:46:44;10.67;;;7.13;;
6858;SDS011;3468;42.824;23.240;2023-05-19T00:49:11;8.30;;;5.63;;
6858;SDS011;3468;42.824;23.240;2023-05-19T00:51:37;9.40;;;6.20;;
6858;SDS011;3468;42.824;23.240;2023-05-19T00:54:05;9.17;;;6.13;;
6858;SDS011;3468;42.824;23.240;2023-05-19T00:56:33;11.77;;;6.77;;
6858;SDS011;3468;42.824;23.240;2023-05-19T00:59:00;10.80;;;7.43;;
6858;SDS011;3468;42.824;23.240;2023-05-19T01:01:28;12.00;;;6.93;;
6858;SDS011;3468;42.824;23.240;2023-05-19T01:03:56;13.73;;;8.43;;
6858;SDS011;3468;42.824;23.240;2023-05-19T01:06:23;15.33;;;7.87;;
6858;SDS011;3468;42.824;23.240;2023-05-19T01:08:53;15.43;;;8.50;;
6858;SDS011;3468;42.824;23.240;2023-05-19T01:11:19;13.57;;;8.00;;
6858;SDS011;3468;42.824;23.240;2023-05-19T01:13:46;17.23;;;9.20;;
6858;SDS011;3468;42.824;23.240;2023-05-19T01:16:15;17.03;;;9.60;;
6858;SDS011;3468;42.824;23.240;2023-05-19T01:18:49;16.07;;;9.77;;
6858;SDS011;3468;42.824;23.240;2023-05-19T01:30:53;17.57;;;10.90;;
6858;SDS011;3468;42.824;23.240;2023-05-19T01:33:22;15.90;;;10.40;;
6858;SDS011;3468;42.824;23.240;2023-05-19T01:35:49;16.47;;;10.70;;
6858;SDS011;3468;42.824;23.240;2023-05-19T01:38:18;18.67;;;10.40;;
6858;SDS011;3468;42.824;23.240;2023-05-19T01:40:46;15.17;;;10.07;;
6858;SDS011;3468;42.824;23.240;2023-05-19T01:43:15;16.07;;;9.97;;
6858;SDS011;3468;42.824;23.240;2023-05-19T01:45:43;20.13;;;11.10;;
6858;SDS011;3468;42.824;23.240;2023-05-19T01:48:12;19.63;;;10.33;;
6858;SDS011;3468;42.824;23.240;2023-05-19T01:50:40;15.27;;;10.03;;
6858;SDS011;3468;42.824;23.240;2023-05-19T01:53:07;19.53;;;11.07;;
6858;SDS011;3468;42.824;23.240;2023-05-19T01:55:35;18.50;;;11.03;;
6858;SDS011;3468;42.824;23.240;2023-05-19T01:58:11;16.43;;;10.77;;
6858;SDS011;3468;42.824;23.240;2023-05-19T02:00:47;20.27;;;11.17;;
6858;SDS011;3468;42.824;23.240;2023-05-19T02:03:23;18.03;;;11.10;;
6858;SDS011;3468;42.824;23.240;2023-05-19T02:05:58;21.33;;;12.13;;
6858;SDS011;3468;42.824;23.240;2023-05-19T02:08:33;23.87;;;11.87;;
6858;SDS011;3468;42.824;23.240;2023-05-19T02:11:11;19.03;;;11.17;;
6858;SDS011;3468;42.824;23.240;2023-05-19T02:13:55;19.77;;;11.40;;
6858;SDS011;3468;42.824;23.240;2023-05-19T02:16:27;18.40;;;11.47;;
6858;SDS011;3468;42.824;23.240;2023-05-19T02:18:55;19.83;;;12.27;;
6858;SDS011;3468;42.824;23.240;2023-05-19T02:21:23;20.40;;;11.07;;
6858;SDS011;3468;42.824;23.240;2023-05-19T02:23:50;20.50;;;12.00;;
6858;SDS011;3468;42.824;23.240;2023-05-19T02:26:17;21.93;;;11.67;;
6858;SDS011;3468;42.824;23.240;2023-05-19T02:28:43;17.80;;;11.10;;
6858;SDS011;3468;42.824;23.240;2023-05-19T02:31:10;19.23;;;10.93;;
6858;SDS011;3468;42.824;23.240;2023-05-19T02:33:37;17.47;;;11.00;;
6858;SDS011;3468;42.824;23.240;2023-05-19T02:36:05;20.57;;;13.00;;
6858;SDS011;3468;42.824;23.240;2023-05-19T02:38:33;19.50;;;11.37;;
6858;SDS011;3468;42.824;23.240;2023-05-19T02:41:00;17.80;;;12.13;;
6858;SDS011;3468;42.824;23.240;2023-05-19T02:43:27;23.43;;;12.13;;
6858;SDS011;3468;42.824;23.240;2023-05-19T02:45:54;20.17;;;12.07;;
6858;SDS011;3468;42.824;23.240;2023-05-19T02:48:21;21.10;;;11.47;;
6858;SDS011;3468;42.824;23.240;2023-05-19T02:50:47;20.20;;;11.33;;
6858;SDS011;3468;42.824;23.240;2023-05-19T02:53:15;18.33;;;11.10;;
6858;SDS011;3468;42.824;23.240;2023-05-19T02:55:42;18.87;;;11.83;;
6858;SDS011;3468;42.824;23.240;2023-05-19T02:58:09;18.73;;;11.13;;
6858;SDS011;3468;42.824;23.240;2023-05-19T03:00:36;21.17;;;12.37;;
6858;SDS011;3468;42.824;23.240;2023-05-19T03:03:02;20.90;;;12.57;;
6858;SDS011;3468;42.824;23.240;2023-05-19T03:05:29;30.30;;;14.33;;
6858;SDS011;3468;42.824;23.240;2023-05-19T03:07:56;32.57;;;13.47;;
6858;SDS011;3468;42.824;23.240;2023-05-19T03:10:24;23.47;;;11.83;;
6858;SDS011;3468;42.824;23.240;2023-05-19T03:12:50;19.60;;;10.20;;
6858;SDS011;3468;42.824;23.240;2023-05-19T03:15:17;21.63;;;11.50;;
6858;SDS011;3468;42.824;23.240;2023-05-19T03:17:44;22.87;;;11.47;;
6858;SDS011;3468;42.824;23.240;2023-05-19T03:20:11;20.03;;;11.17;;
6858;SDS011;3468;42.824;23.240;2023-05-19T03:22:39;19.00;;;12.07;;
6858;SDS011;3468;42.824;23.240;2023-05-19T03:25:06;22.97;;;11.80;;
6858;SDS011;3468;42.824;23.240;2023-05-19T03:27:35;18.70;;;10.13;;
6858;SDS011;3468;42.824;23.240;2023-05-19T03:30:02;17.20;;;10.27;;
6858;SDS011;3468;42.824;23.240;2023-05-19T03:32:29;18.13;;;11.10;;
6858;SDS011;3468;42.824;23.240;2023-05-19T03:34:56;23.80;;;11.50;;
6858;SDS011;3468;42.824;23.240;2023-05-19T03:37:23;19.90;;;11.63;;
6858;SDS011;3468;42.824;23.240;2023-05-19T03:39:50;20.20;;;10.93;;
6858;SDS011;3468;42.824;23.240;2023-05-19T03:42:16;19.47;;;11.67;;
6858;SDS011;3468;42.824;23.240;2023-05-19T03:44:44;24.50;;;12.70;;
6858;SDS011;3468;42.824;23.240;2023-05-19T03:47:11;24.60;;;12.80;;
6858;SDS011;3468;42.824;23.240;2023-05-19T03:49:38;23.00;;;12.57;;
6858;SDS011;3468;42.824;23.240;2023-05-19T03:52:04;24.33;;;13.17;;
6858;SDS011;3468;42.824;23.240;2023-05-19T03:54:31;25.20;;;13.10;;
6858;SDS011;3468;42.824;23.240;2023-05-19T03:56:58;30.93;;;15.07;;
6858;SDS011;3468;42.824;23.240;2023-05-19T03:59:25;26.43;;;15.40;;
6858;SDS011;3468;42.824;23.240;2023-05-19T04:01:53;29.57;;;13.93;;
6858;SDS011;3468;42.824;23.240;2023-05-19T04:04:20;23.63;;;13.13;;
6858;SDS011;3468;42.824;23.240;2023-05-19T04:06:47;22.37;;;12.47;;
6858;SDS011;3468;42.824;23.240;2023-05-19T04:09:14;26.80;;;15.40;;
6858;SDS011;3468;42.824;23.240;2023-05-19T04:11:41;24.00;;;13.43;;
6858;SDS011;3468;42.824;23.240;2023-05-19T04:14:08;24.03;;;12.77;;
6858;SDS011;3468;42.824;23.240;2023-05-19T04:16:35;21.37;;;12.43;;
6858;SDS011;3468;42.824;23.240;2023-05-19T04:19:03;20.10;;;11.80;;
6858;SDS011;3468;42.824;23.240;2023-05-19T04:21:30;21.50;;;12.10;;
6858;SDS011;3468;42.824;23.240;2023-05-19T04:23:57;21.93;;;12.43;;
6858;SDS011;3468;42.824;23.240;2023-05-19T04:26:24;19.40;;;11.07;;
6858;SDS011;3468;42.824;23.240;2023-05-19T04:28:54;17.90;;;11.40;;
6858;SDS011;3468;42.824;23.240;2023-05-19T04:31:21;17.07;;;11.37;;
6858;SDS011;3468;42.824;23.240;2023-05-19T04:33:48;17.37;;;10.27;;
6858;SDS011;3468;42.824;23.240;2023-05-19T04:36:18;17.53;;;10.17;;
6858;SDS011;3468;42.824;23.240;2023-05-19T04:38:46;14.43;;;9.50;;
6858;SDS011;3468;42.824;23.240;2023-05-19T04:41:13;13.87;;;8.47;;
6858;SDS011;3468;42.824;23.240;2023-05-19T04:43:40;12.87;;;9.00;;
6858;SDS011;3468;42.824;23.240;2023-05-19T04:46:08;14.50;;;9.43;;
6858;SDS011;3468;42.824;23.240;2023-05-19T04:48:36;14.10;;;8.77;;
6858;SDS011;3468;42.824;23.240;2023-05-19T04:51:04;17.30;;;9.23;;
6858;SDS011;3468;42.824;23.240;2023-05-19T04:53:32;13.97;;;8.50;;
6858;SDS011;3468;42.824;23.240;2023-05-19T04:55:59;13.17;;;8.77;;
6858;SDS011;3468;42.824;23.240;2023-05-19T04:58:27;12.87;;;8.57;;
6858;SDS011;3468;42.824;23.240;2023-05-19T05:00:54;15.83;;;8.87;;
6858;SDS011;3468;42.824;23.240;2023-05-19T05:03:21;14.80;;;9.03;;
6858;SDS011;3468;42.824;23.240;2023-05-19T05:05:49;17.80;;;9.17;;
6858;SDS011;3468;42.824;23.240;2023-05-19T05:08:15;14.53;;;9.03;;
6858;SDS011;3468;42.824;23.240;2023-05-19T05:10:49;12.80;;;7.83;;
6858;SDS011;3468;42.824;23.240;2023-05-19T05:13:16;14.10;;;7.83;;
6858;SDS011;3468;42.824;23.240;2023-05-19T05:15:44;13.93;;;8.27;;
6858;SDS011;3468;42.824;23.240;2023-05-19T05:18:11;12.33;;;8.07;;
6858;SDS011;3468;42.824;23.240;2023-05-19T05:20:39;12.90;;;7.57;;
6858;SDS011;3468;42.824;23.240;2023-05-19T05:23:07;12.87;;;8.17;;
6858;SDS011;3468;42.824;23.240;2023-05-19T05:25:34;13.80;;;8.70;;
6858;SDS011;3468;42.824;23.240;2023-05-19T05:28:03;12.97;;;7.07;;
6858;SDS011;3468;42.824;23.240;2023-05-19T05:30:30;11.07;;;7.63;;
6858;SDS011;3468;42.824;23.240;2023-05-19T05:32:58;13.07;;;8.00;;
6858;SDS011;3468;42.824;23.240;2023-05-19T05:35:26;14.70;;;8.00;;
6858;SDS011;3468;42.824;23.240;2023-05-19T05:37:53;12.32;;;7.88;;
6858;SDS011;3468;42.824;23.240;2023-05-19T05:40:20;11.32;;;7.47;;
6858;SDS011;3468;42.824;23.240;2023-05-19T05:42:47;12.63;;;7.93;;
6858;SDS011;3468;42.824;23.240;2023-05-19T05:45:15;11.77;;;7.30;;
6858;SDS011;3468;42.824;23.240;2023-05-19T05:47:42;11.05;;;7.90;;
6858;SDS011;3468;42.824;23.240;2023-05-19T05:50:09;10.87;;;7.40;;
6858;SDS011;3468;42.824;23.240;2023-05-19T05:52:37;11.77;;;7.20;;
6858;SDS011;3468;42.824;23.240;2023-05-19T05:55:07;12.03;;;7.63;;
6858;SDS011;3468;42.824;23.240;2023-05-19T05:57:34;12.90;;;7.77;;
6858;SDS011;3468;42.824;23.240;2023-05-19T06:00:01;12.83;;;8.33;;
6858;SDS011;3468;42.824;23.240;2023-05-19T06:02:32;14.30;;;8.60;;
6858;SDS011;3468;42.824;23.240;2023-05-19T06:05:00;12.50;;;8.10;;
6858;SDS011;3468;42.824;23.240;2023-05-19T06:07:27;13.43;;;8.27;;
6858;SDS011;3468;42.824;23.240;2023-05-19T06:09:54;11.43;;;7.83;;
6858;SDS011;3468;42.824;23.240;2023-05-19T06:12:21;10.93;;;7.53;;
6858;SDS011;3468;42.824;23.240;2023-05-19T06:14:48;12.35;;;8.30;;
6858;SDS011;3468;42.824;23.240;2023-05-19T06:17:16;12.02;;;7.53;;
6858;SDS011;3468;42.824;23.240;2023-05-19T06:19:44;9.18;;;7.10;;
6858;SDS011;3468;42.824;23.240;2023-05-19T06:22:10;12.60;;;7.47;;
6858;SDS011;3468;42.824;23.240;2023-05-19T06:24:37;11.23;;;8.05;;
6858;SDS011;3468;42.824;23.240;2023-05-19T06:27:04;9.40;;;7.00;;
6858;SDS011;3468;42.824;23.240;2023-05-19T06:29:30;10.40;;;6.97;;
6858;SDS011;3468;42.824;23.240;2023-05-19T06:31:57;13.15;;;7.47;;
6858;SDS011;3468;42.824;23.240;2023-05-19T06:34:24;10.90;;;7.10;;
6858;SDS011;3468;42.824;23.240;2023-05-19T06:36:52;12.27;;;6.55;;
6858;SDS011;3468;42.824;23.240;2023-05-19T06:39:19;9.85;;;6.90;;
6858;SDS011;3468;42.824;23.240;2023-05-19T06:41:46;11.25;;;6.65;;
6858;SDS011;3468;42.824;23.240;2023-05-19T06:44:12;9.65;;;6.70;;
6858;SDS011;3468;42.824;23.240;2023-05-19T06:46:39;13.35;;;8.30;;
6858;SDS011;3468;42.824;23.240;2023-05-19T06:49:06;12.93;;;7.72;;
6858;SDS011;3468;42.824;23.240;2023-05-19T06:51:33;11.18;;;7.28;;
6858;SDS011;3468;42.824;23.240;2023-05-19T06:54:01;11.60;;;7.38;;
6858;SDS011;3468;42.824;23.240;2023-05-19T06:56:28;12.00;;;6.68;;
6858;SDS011;3468;42.824;23.240;2023-05-19T06:58:54;13.00;;;7.15;;
6858;SDS011;3468;42.824;23.240;2023-05-19T07:01:21;10.00;;;6.85;;
6858;SDS011;3468;42.824;23.240;2023-05-19T07:03:48;7.75;;;5.70;;
6858;SDS011;3468;42.824;23.240;2023-05-19T07:06:15;9.15;;;6.78;;
6858;SDS011;3468;42.824;23.240;2023-05-19T07:08:41;10.80;;;6.63;;
6858;SDS011;3468;42.824;23.240;2023-05-19T07:11:10;9.77;;;6.57;;
6858;SDS011;3468;42.824;23.240;2023-05-19T07:13:37;12.38;;;6.32;;
6858;SDS011;3468;42.824;23.240;2023-05-19T07:16:04;9.27;;;6.90;;
6858;SDS011;3468;42.824;23.240;2023-05-19T07:18:31;11.07;;;7.32;;
6858;SDS011;3468;42.824;23.240;2023-05-19T07:20:57;7.40;;;5.82;;
6858;SDS011;3468;42.824;23.240;2023-05-19T07:23:24;10.25;;;6.25;;
6858;SDS011;3468;42.824;23.240;2023-05-19T07:25:52;12.32;;;6.70;;
6858;SDS011;3468;42.824;23.240;2023-05-19T07:28:21;10.63;;;6.70;;
6858;SDS011;3468;42.824;23.240;2023-05-19T07:30:48;10.95;;;6.22;;
6858;SDS011;3468;42.824;23.240;2023-05-19T07:33:14;9.23;;;6.72;;
6858;SDS011;3468;42.824;23.240;2023-05-19T07:35:41;12.30;;;7.32;;
6858;SDS011;3468;42.824;23.240;2023-05-19T07:38:09;9.45;;;7.22;;
6858;SDS011;3468;42.824;23.240;2023-05-19T07:40:36;8.18;;;6.10;;
6858;SDS011;3468;42.824;23.240;2023-05-19T07:43:02;8.88;;;6.55;;
6858;SDS011;3468;42.824;23.240;2023-05-19T07:45:31;9.23;;;6.50;;
6858;SDS011;3468;42.824;23.240;2023-05-19T07:47:57;9.70;;;6.75;;
6858;SDS011;3468;42.824;23.240;2023-05-19T07:50:24;8.20;;;6.72;;
6858;SDS011;3468;42.824;23.240;2023-05-19T07:52:51;10.93;;;6.78;;
6858;SDS011;3468;42.824;23.240;2023-05-19T07:55:18;10.57;;;7.13;;
6858;SDS011;3468;42.824;23.240;2023-05-19T07:57:47;10.55;;;6.97;;
6858;SDS011;3468;42.824;23.240;2023-05-19T08:00:14;11.63;;;7.15;;
6858;SDS011;3468;42.824;23.240;2023-05-19T08:02:43;10.55;;;7.18;;
6858;SDS011;3468;42.824;23.240;2023-05-19T08:05:10;9.60;;;6.43;;
6858;SDS011;3468;42.824;23.240;2023-05-19T08:07:37;11.98;;;7.45;;
6858;SDS011;3468;42.824;23.240;2023-05-19T08:10:03;12.73;;;7.13;;
6858;SDS011;3468;42.824;23.240;2023-05-19T08:12:32;11.85;;;7.40;;
6858;SDS011;3468;42.824;23.240;2023-05-19T08:15:00;18.45;;;7.55;;
6858;SDS011;3468;42.824;23.240;2023-05-19T08:17:26;9.98;;;6.63;;
6858;SDS011;3468;42.824;23.240;2023-05-19T08:19:55;11.30;;;7.10;;
6858;SDS011;3468;42.824;23.240;2023-05-19T08:22:22;10.75;;;6.93;;
6858;SDS011;3468;42.824;23.240;2023-05-19T08:24:48;10.35;;;7.20;;
6858;SDS011;3468;42.824;23.240;2023-05-19T08:27:15;9.93;;;6.80;;
6858;SDS011;3468;42.824;23.240;2023-05-19T08:29:42;10.50;;;6.43;;
6858;SDS011;3468;42.824;23.240;2023-05-19T08:32:09;11.75;;;6.65;;
6858;SDS011;3468;42.824;23.240;2023-05-19T08:34:35;9.65;;;6.47;;
6858;SDS011;3468;42.824;23.240;2023-05-19T08:37:03;10.68;;;7.07;;
6858;SDS011;3468;42.824;23.240;2023-05-19T08:39:31;9.90;;;6.03;;
6858;SDS011;3468;42.824;23.240;2023-05-19T08:41:58;8.38;;;5.95;;
6858;SDS011;3468;42.824;23.240;2023-05-19T08:44:26;9.35;;;6.25;;
6858;SDS011;3468;42.824;23.240;2023-05-19T08:46:54;12.40;;;7.18;;
6858;SDS011;3468;42.824;23.240;2023-05-19T08:49:26;10.57;;;6.35;;
6858;SDS011;3468;42.824;23.240;2023-05-19T08:51:57;9.48;;;6.80;;
6858;SDS011;3468;42.824;23.240;2023-05-19T08:54:35;9.50;;;6.75;;
6858;SDS011;3468;42.824;23.240;2023-05-19T08:57:06;9.02;;;5.82;;
6858;SDS011;3468;42.824;23.240;2023-05-19T08:59:34;9.57;;;6.97;;
6858;SDS011;3468;42.824;23.240;2023-05-19T09:02:01;14.63;;;6.43;;
6858;SDS011;3468;42.824;23.240;2023-05-19T09:04:29;10.93;;;6.70;;
6858;SDS011;3468;42.824;23.240;2023-05-19T09:06:57;8.75;;;7.00;;
6858;SDS011;3468;42.824;23.240;2023-05-19T09:09:26;8.15;;;6.18;;
6858;SDS011;3468;42.824;23.240;2023-05-19T09:11:55;9.40;;;6.38;;
6858;SDS011;3468;42.824;23.240;2023-05-19T09:14:22;10.68;;;6.97;;
6858;SDS011;3468;42.824;23.240;2023-05-19T09:16:49;11.60;;;7.07;;
6858;SDS011;3468;42.824;23.240;2023-05-19T09:19:17;10.38;;;6.70;;
6858;SDS011;3468;42.824;23.240;2023-05-19T09:21:44;9.43;;;6.55;;
6858;SDS011;3468;42.824;23.240;2023-05-19T09:24:11;11.25;;;6.35;;
6858;SDS011;3468;42.824;23.240;2023-05-19T09:26:38;8.52;;;6.10;;
6858;SDS011;3468;42.824;23.240;2023-05-19T09:29:11;11.60;;;6.68;;
6858;SDS011;3468;42.824;23.240;2023-05-19T09:31:38;12.05;;;6.78;;
6858;SDS011;3468;42.824;23.240;2023-05-19T09:34:10;13.02;;;6.95;;
6858;SDS011;3468;42.824;23.240;2023-05-19T09:36:38;10.80;;;7.40;;
6858;SDS011;3468;42.824;23.240;2023-05-19T09:39:11;14.00;;;7.30;;
6858;SDS011;3468;42.824;23.240;2023-05-19T09:41:38;14.80;;;6.93;;
6858;SDS011;3468;42.824;23.240;2023-05-19T09:44:05;12.90;;;7.57;;
6858;SDS011;3468;42.824;23.240;2023-05-19T09:46:33;13.50;;;7.63;;
6858;SDS011;3468;42.824;23.240;2023-05-19T09:49:06;14.65;;;7.32;;
6858;SDS011;3468;42.824;23.240;2023-05-19T09:51:34;12.15;;;7.57;;
6858;SDS011;3468;42.824;23.240;2023-05-19T09:54:02;11.68;;;8.38;;
6858;SDS011;3468;42.824;23.240;2023-05-19T09:56:30;13.40;;;8.00;;
6858;SDS011;3468;42.824;23.240;2023-05-19T09:58:59;11.52;;;7.30;;
6858;SDS011;3468;42.824;23.240;2023-05-19T10:01:27;13.55;;;6.88;;
6858;SDS011;3468;42.824;23.240;2023-05-19T10:03:56;12.15;;;7.43;;
6858;SDS011;3468;42.824;23.240;2023-05-19T10:06:23;11.80;;;6.70;;
6858;SDS011;3468;42.824;23.240;2023-05-19T10:08:51;13.20;;;7.50;;
6858;SDS011;3468;42.824;23.240;2023-05-19T10:11:18;9.43;;;6.75;;
6858;SDS011;3468;42.824;23.240;2023-05-19T10:13:48;13.57;;;6.72;;
6858;SDS011;3468;42.824;23.240;2023-05-19T10:16:16;11.82;;;6.38;;
6858;SDS011;3468;42.824;23.240;2023-05-19T10:18:43;13.27;;;6.97;;
6858;SDS011;3468;42.824;23.240;2023-05-19T10:21:11;11.88;;;6.90;;
6858;SDS011;3468;42.824;23.240;2023-05-19T10:23:39;19.30;;;7.20;;
6858;SDS011;3468;42.824;23.240;2023-05-19T10:26:06;12.50;;;6.70;;
6858;SDS011;3468;42.824;23.240;2023-05-19T10:28:36;11.90;;;7.13;;
6858;SDS011;3468;42.824;23.240;2023-05-19T10:31:05;8.98;;;6.55;;
6858;SDS011;3468;42.824;23.240;2023-05-19T10:33:37;10.82;;;6.85;;
6858;SDS011;3468;42.824;23.240;2023-05-19T10:36:20;10.07;;;6.63;;
6858;SDS011;3468;42.824;23.240;2023-05-19T10:38:59;14.93;;;6.20;;
6858;SDS011;3468;42.824;23.240;2023-05-19T10:41:33;10.80;;;6.78;;
6858;SDS011;3468;42.824;23.240;2023-05-19T10:44:08;17.05;;;6.80;;
6858;SDS011;3468;42.824;23.240;2023-05-19T10:46:42;10.20;;;6.95;;
6858;SDS011;3468;42.824;23.240;2023-05-19T10:49:09;10.52;;;6.57;;
6858;SDS011;3468;42.824;23.240;2023-05-19T10:51:46;10.23;;;6.40;;
6858;SDS011;3468;42.824;23.240;2023-05-19T10:54:12;10.15;;;7.07;;
6858;SDS011;3468;42.824;23.240;2023-05-19T10:56:41;20.70;;;11.85;;
6858;SDS011;3468;42.824;23.240;2023-05-19T11:01:55;11.65;;;6.50;;
6858;SDS011;3468;42.824;23.240;2023-05-19T11:04:37;12.45;;;6.90;;
6858;SDS011;3468;42.824;23.240;2023-05-19T11:07:07;9.48;;;6.68;;
6858;SDS011;3468;42.824;23.240;2023-05-19T11:09:37;10.70;;;6.68;;
6858;SDS011;3468;42.824;23.240;2023-05-19T11:12:06;9.20;;;6.40;;
6858;SDS011;3468;42.824;23.240;2023-05-19T11:14:34;11.13;;;5.78;;
6858;SDS011;3468;42.824;23.240;2023-05-19T11:17:01;12.43;;;6.28;;
6858;SDS011;3468;42.824;23.240;2023-05-19T11:19:29;12.30;;;6.63;;
6858;SDS011;3468;42.824;23.240;2023-05-19T11:22:07;11.27;;;6.20;;
6858;SDS011;3468;42.824;23.240;2023-05-19T11:24:35;11.60;;;6.93;;
6858;SDS011;3468;42.824;23.240;2023-05-19T11:27:20;8.32;;;5.82;;
6858;SDS011;3468;42.824;23.240;2023-05-19T11:29:50;8.25;;;5.78;;
6858;SDS011;3468;42.824;23.240;2023-05-19T11:32:18;9.50;;;6.05;;
6858;SDS011;3468;42.824;23.240;2023-05-19T11:34:46;11.75;;;6.70;;
6858;SDS011;3468;42.824;23.240;2023-05-19T11:37:15;9.98;;;6.13;;
6858;SDS011;3468;42.824;23.240;2023-05-19T11:39:42;11.98;;;6.18;;
6858;SDS011;3468;42.824;23.240;2023-05-19T11:42:11;10.15;;;6.03;;
6858;SDS011;3468;42.824;23.240;2023-05-19T11:44:38;7.90;;;5.90;;
6858;SDS011;3468;42.824;23.240;2023-05-19T11:47:05;10.88;;;6.13;;
6858;SDS011;3468;42.824;23.240;2023-05-19T11:49:32;9.25;;;5.50;;
6858;SDS011;3468;42.824;23.240;2023-05-19T11:51:59;8.60;;;6.00;;
6858;SDS011;3468;42.824;23.240;2023-05-19T11:54:31;9.00;;;5.53;;
6858;SDS011;3468;42.824;23.240;2023-05-19T11:57:00;8.52;;;5.70;;
6858;SDS011;3468;42.824;23.240;2023-05-19T11:59:28;8.57;;;5.50;;
6858;SDS011;3468;42.824;23.240;2023-05-19T12:01:56;9.10;;;6.00;;
6858;SDS011;3468;42.824;23.240;2023-05-19T12:04:26;8.38;;;5.15;;
6858;SDS011;3468;42.824;23.240;2023-05-19T12:06:52;7.85;;;5.22;;
6858;SDS011;3468;42.824;23.240;2023-05-19T12:09:21;9.27;;;5.90;;
6858;SDS011;3468;42.824;23.240;2023-05-19T12:11:50;10.50;;;5.95;;
6858;SDS011;3468;42.824;23.240;2023-05-19T12:14:17;8.05;;;5.30;;
6858;SDS011;3468;42.824;23.240;2023-05-19T12:16:44;6.43;;;5.07;;
6858;SDS011;3468;42.824;23.240;2023-05-19T12:19:10;9.40;;;5.18;;
6858;SDS011;3468;42.824;23.240;2023-05-19T12:21:37;12.55;;;6.57;;
6858;SDS011;3468;42.824;23.240;2023-05-19T12:24:04;9.18;;;6.30;;
6858;SDS011;3468;42.824;23.240;2023-05-19T12:26:32;14.02;;;6.20;;
6858;SDS011;3468;42.824;23.240;2023-05-19T12:29:01;11.65;;;7.20;;
6858;SDS011;3468;42.824;23.240;2023-05-19T12:31:30;10.30;;;6.07;;
6858;SDS011;3468;42.824;23.240;2023-05-19T12:33:58;11.18;;;6.38;;
6858;SDS011;3468;42.824;23.240;2023-05-19T12:36:25;10.05;;;6.25;;
6858;SDS011;3468;42.824;23.240;2023-05-19T12:38:53;9.18;;;5.10;;
6858;SDS011;3468;42.824;23.240;2023-05-19T12:41:20;9.13;;;5.75;;
6858;SDS011;3468;42.824;23.240;2023-05-19T12:43:47;8.13;;;5.35;;
6858;SDS011;3468;42.824;23.240;2023-05-19T12:46:17;8.00;;;5.40;;
6858;SDS011;3468;42.824;23.240;2023-05-19T12:48:44;10.05;;;5.38;;
6858;SDS011;3468;42.824;23.240;2023-05-19T12:51:15;8.25;;;5.97;;
6858;SDS011;3468;42.824;23.240;2023-05-19T12:53:42;9.57;;;6.07;;
6858;SDS011;3468;42.824;23.240;2023-05-19T12:56:10;9.95;;;5.47;;
6858;SDS011;3468;42.824;23.240;2023-05-19T12:58:38;8.35;;;5.10;;
6858;SDS011;3468;42.824;23.240;2023-05-19T13:01:05;12.00;;;7.25;;
6858;SDS011;3468;42.824;23.240;2023-05-19T13:03:39;10.60;;;5.35;;
6858;SDS011;3468;42.824;23.240;2023-05-19T13:06:07;9.75;;;5.72;;
6858;SDS011;3468;42.824;23.240;2023-05-19T13:08:35;8.00;;;5.72;;
6858;SDS011;3468;42.824;23.240;2023-05-19T13:11:02;8.43;;;5.70;;
6858;SDS011;3468;42.824;23.240;2023-05-19T13:13:29;10.32;;;6.15;;
6858;SDS011;3468;42.824;23.240;2023-05-19T13:15:56;8.23;;;5.25;;
6858;SDS011;3468;42.824;23.240;2023-05-19T13:18:23;6.50;;;5.32;;
6858;SDS011;3468;42.824;23.240;2023-05-19T13:20:53;8.30;;;5.05;;
6858;SDS011;3468;42.824;23.240;2023-05-19T13:23:20;7.13;;;4.95;;
6858;SDS011;3468;42.824;23.240;2023-05-19T13:25:48;11.15;;;5.47;;
6858;SDS011;3468;42.824;23.240;2023-05-19T13:28:15;9.82;;;5.28;;
6858;SDS011;3468;42.824;23.240;2023-05-19T13:30:42;7.13;;;5.00;;
6858;SDS011;3468;42.824;23.240;2023-05-19T13:33:10;7.50;;;4.50;;
6858;SDS011;3468;42.824;23.240;2023-05-19T13:35:37;7.63;;;5.00;;
6858;SDS011;3468;42.824;23.240;2023-05-19T13:38:05;7.05;;;4.70;;
6858;SDS011;3468;42.824;23.240;2023-05-19T13:40:33;7.68;;;5.43;;
6858;SDS011;3468;42.824;23.240;2023-05-19T13:43:00;10.02;;;5.60;;
6858;SDS011;3468;42.824;23.240;2023-05-19T13:45:27;7.97;;;4.72;;
6858;SDS011;3468;42.824;23.240;2023-05-19T13:47:54;10.40;;;5.15;;
6858;SDS011;3468;42.824;23.240;2023-05-19T13:50:21;17.88;;;9.30;;
6858;SDS011;3468;42.824;23.240;2023-05-19T13:52:47;10.68;;;6.03;;
6858;SDS011;3468;42.824;23.240;2023-05-19T13:55:15;7.65;;;5.50;;
6858;SDS011;3468;42.824;23.240;2023-05-19T13:57:43;7.95;;;5.78;;
6858;SDS011;3468;42.824;23.240;2023-05-19T14:00:10;9.05;;;5.03;;
6858;SDS011;3468;42.824;23.240;2023-05-19T14:02:37;9.35;;;5.75;;
6858;SDS011;3468;42.824;23.240;2023-05-19T14:05:04;13.35;;;8.50;;
6858;SDS011;3468;42.824;23.240;2023-05-19T14:07:32;12.02;;;5.72;;
6858;SDS011;3468;42.824;23.240;2023-05-19T14:09:59;6.97;;;5.18;;
6858;SDS011;3468;42.824;23.240;2023-05-19T14:12:28;9.38;;;5.78;;
6858;SDS011;3468;42.824;23.240;2023-05-19T14:14:55;8.15;;;5.57;;
6858;SDS011;3468;42.824;23.240;2023-05-19T14:17:22;7.97;;;5.90;;
6858;SDS011;3468;42.824;23.240;2023-05-19T14:19:49;10.18;;;5.72;;
6858;SDS011;3468;42.824;23.240;2023-05-19T14:22:15;8.55;;;5.65;;
6858;SDS011;3468;42.824;23.240;2023-05-19T14:24:43;23.55;;;16.80;;
6858;SDS011;3468;42.824;23.240;2023-05-19T14:27:10;8.63;;;5.78;;
6858;SDS011;3468;42.824;23.240;2023-05-19T14:29:38;7.22;;;5.90;;
6858;SDS011;3468;42.824;23.240;2023-05-19T14:32:05;8.90;;;5.60;;
6858;SDS011;3468;42.824;23.240;2023-05-19T14:34:33;11.02;;;5.63;;
6858;SDS011;3468;42.824;23.240;2023-05-19T14:36:59;11.52;;;5.28;;
6858;SDS011;3468;42.824;23.240;2023-05-19T14:39:27;13.43;;;8.07;;
6858;SDS011;3468;42.824;23.240;2023-05-19T14:41:55;9.40;;;5.50;;
6858;SDS011;3468;42.824;23.240;2023-05-19T14:44:23;8.25;;;5.85;;
6858;SDS011;3468;42.824;23.240;2023-05-19T14:46:51;8.48;;;5.55;;
6858;SDS011;3468;42.824;23.240;2023-05-19T14:49:18;9.73;;;5.85;;
6858;SDS011;3468;42.824;23.240;2023-05-19T14:51:45;9.63;;;5.30;;
6858;SDS011;3468;42.824;23.240;2023-05-19T14:54:11;10.82;;;5.72;;
6858;SDS011;3468;42.824;23.240;2023-05-19T14:56:38;9.10;;;5.68;;
6858;SDS011;3468;42.824;23.240;2023-05-19T14:59:05;8.20;;;5.30;;
6858;SDS011;3468;42.824;23.240;2023-05-19T15:01:32;13.18;;;7.43;;
6858;SDS011;3468;42.824;23.240;2023-05-19T15:04:00;10.23;;;6.22;;